sensor_id;sensor_type;location;lat;lon;timestamp;P1;durP1;ratioP1;P2;durP2;ratioP2
5491;SDS011;2768;53.540;10.224;2024-01-30T00:02:43;6.37;;;5.73;;
5491;SDS011;2768;53.540;10.224;2024-01-30T00:08:37;6.87;;;6.17;;
5491;SDS011;2768;53.540;10.224;2024-01-30T00:14:32;7.03;;;5.80;;
5491;SDS011;2768;53.540;10.224;2024-01-30T00:20:25;8.10;;;6.40;;
5491;SDS011;2768;53.540;10.224;2024-01-30T00:26:18;10.90;;;5.97;;
5491;SDS011;2768;53.540;10.224;2024-01-30T00:32:13;6.73;;;6.13;;
5491;SDS011;2768;53.540;10.224;2024-01-30T00:38:06;6.70;;;6.00;;
5491;SDS011;2768;53.540;10.224;2024-01-30T00:44:00;10.27;;;7.70;;
5491;SDS011;2768;53.540;10.224;2024-01-30T00:49:54;9.93;;;7.37;;
5491;SDS011;2768;53.540;10.224;2024-01-30T00:55:47;8.87;;;7.90;;
5491;SDS011;2768;53.540;10.224;2024-01-30T01:01:41;12.10;;;6.83;;
5491;SDS011;2768;53.540;10.224;2024-01-30T01:07:35;10.63;;;6.80;;
5491;SDS011;2768;53.540;10.224;2024-01-30T01:13:29;7.73;;;6.73;;
5491;SDS011;2768;53.540;10.224;2024-01-30T01:19:22;8.70;;;7.40;;
5491;SDS011;2768;53.540;10.224;2024-01-30T01:25:17;7.80;;;6.47;;
5491;SDS011;2768;53.540;10.224;2024-01-30T01:31:10;6.73;;;6.03;;
5491;SDS011;2768;53.540;10.224;2024-01-30T01:37:04;6.93;;;6.13;;
5491;SDS011;2768;53.540;10.224;2024-01-30T01:42:58;6.67;;;5.97;;
5491;SDS011;2768;53.540;10.224;2024-01-30T01:48:55;8.27;;;6.97;;
5491;SDS011;2768;53.540;10.224;2024-01-30T01:54:50;10.53;;;6.63;;
5491;SDS011;2768;53.540;10.224;2024-01-30T02:00:44;7.97;;;6.60;;
5491;SDS011;2768;53.540;10.224;2024-01-30T02:06:38;6.70;;;6.13;;
5491;SDS011;2768;53.540;10.224;2024-01-30T02:12:31;6.87;;;6.17;;
5491;SDS011;2768;53.540;10.224;2024-01-30T02:18:26;9.00;;;6.83;;
5491;SDS011;2768;53.540;10.224;2024-01-30T02:24:21;7.50;;;6.80;;
5491;SDS011;2768;53.540;10.224;2024-01-30T02:30:14;9.87;;;6.60;;
5491;SDS011;2768;53.540;10.224;2024-01-30T02:36:07;8.83;;;6.13;;
5491;SDS011;2768;53.540;10.224;2024-01-30T02:42:02;8.77;;;6.80;;
5491;SDS011;2768;53.540;10.224;2024-01-30T02:47:55;7.03;;;6.33;;
5491;SDS011;2768;53.540;10.224;2024-01-30T02:53:49;8.97;;;7.30;;
5491;SDS011;2768;53.540;10.224;2024-01-30T02:59:43;9.13;;;6.63;;
5491;SDS011;2768;53.540;10.224;2024-01-30T03:05:37;7.33;;;6.60;;
5491;SDS011;2768;53.540;10.224;2024-01-30T03:11:30;9.00;;;8.17;;
5491;SDS011;2768;53.540;10.224;2024-01-30T03:17:25;7.90;;;7.10;;
5491;SDS011;2768;53.540;10.224;2024-01-30T03:23:18;7.43;;;6.60;;
5491;SDS011;2768;53.540;10.224;2024-01-30T03:29:11;8.23;;;7.47;;
5491;SDS011;2768;53.540;10.224;2024-01-30T03:35:07;8.57;;;6.97;;
5491;SDS011;2768;53.540;10.224;2024-01-30T03:41:00;7.13;;;6.43;;
5491;SDS011;2768;53.540;10.224;2024-01-30T03:46:54;10.00;;;6.80;;
5491;SDS011;2768;53.540;10.224;2024-01-30T03:52:48;7.27;;;6.57;;
5491;SDS011;2768;53.540;10.224;2024-01-30T03:58:42;9.93;;;7.13;;
5491;SDS011;2768;53.540;10.224;2024-01-30T04:04:35;7.73;;;6.93;;
5491;SDS011;2768;53.540;10.224;2024-01-30T04:10:30;9.67;;;7.47;;
5491;SDS011;2768;53.540;10.224;2024-01-30T04:16:23;8.10;;;7.30;;
5491;SDS011;2768;53.540;10.224;2024-01-30T04:22:16;8.63;;;7.80;;
5491;SDS011;2768;53.540;10.224;2024-01-30T04:28:11;8.60;;;7.37;;
5491;SDS011;2768;53.540;10.224;2024-01-30T04:34:05;8.83;;;8.00;;
5491;SDS011;2768;53.540;10.224;2024-01-30T04:39:58;8.70;;;7.83;;
5491;SDS011;2768;53.540;10.224;2024-01-30T04:45:53;8.30;;;7.40;;
5491;SDS011;2768;53.540;10.224;2024-01-30T04:51:47;8.73;;;7.77;;
5491;SDS011;2768;53.540;10.224;2024-01-30T04:57:40;9.20;;;8.30;;
5491;SDS011;2768;53.540;10.224;2024-01-30T05:03:35;8.80;;;7.80;;
5491;SDS011;2768;53.540;10.224;2024-01-30T05:09:28;8.63;;;7.83;;
5491;SDS011;2768;53.540;10.224;2024-01-30T05:15:21;9.37;;;8.47;;
5491;SDS011;2768;53.540;10.224;2024-01-30T05:21:16;9.50;;;8.10;;
5491;SDS011;2768;53.540;10.224;2024-01-30T05:27:10;9.80;;;8.00;;
5491;SDS011;2768;53.540;10.224;2024-01-30T05:33:04;8.67;;;7.80;;
5491;SDS011;2768;53.540;10.224;2024-01-30T05:38:59;11.83;;;8.90;;
5491;SDS011;2768;53.540;10.224;2024-01-30T05:44:55;12.17;;;8.93;;
5491;SDS011;2768;53.540;10.224;2024-01-30T05:50:49;10.33;;;9.13;;
5491;SDS011;2768;53.540;10.224;2024-01-30T05:56:43;10.00;;;9.00;;
5491;SDS011;2768;53.540;10.224;2024-01-30T06:02:37;10.27;;;9.33;;
5491;SDS011;2768;53.540;10.224;2024-01-30T06:08:30;11.57;;;9.67;;
5491;SDS011;2768;53.540;10.224;2024-01-30T06:14:25;10.43;;;9.00;;
5491;SDS011;2768;53.540;10.224;2024-01-30T06:20:18;9.30;;;8.40;;
5491;SDS011;2768;53.540;10.224;2024-01-30T06:26:11;10.43;;;9.43;;
5491;SDS011;2768;53.540;10.224;2024-01-30T06:32:06;11.00;;;9.80;;
5491;SDS011;2768;53.540;10.224;2024-01-30T06:37:59;12.83;;;9.50;;
5491;SDS011;2768;53.540;10.224;2024-01-30T06:43:53;10.70;;;9.60;;
5491;SDS011;2768;53.540;10.224;2024-01-30T06:49:47;10.40;;;9.30;;
5491;SDS011;2768;53.540;10.224;2024-01-30T06:55:41;14.07;;;10.00;;
5491;SDS011;2768;53.540;10.224;2024-01-30T07:01:34;10.63;;;9.60;;
5491;SDS011;2768;53.540;10.224;2024-01-30T07:07:28;12.20;;;9.47;;
5491;SDS011;2768;53.540;10.224;2024-01-30T07:13:22;11.27;;;10.17;;
5491;SDS011;2768;53.540;10.224;2024-01-30T07:19:15;11.47;;;10.27;;
5491;SDS011;2768;53.540;10.224;2024-01-30T07:25:10;11.17;;;10.07;;
5491;SDS011;2768;53.540;10.224;2024-01-30T07:31:04;14.13;;;10.77;;
5491;SDS011;2768;53.540;10.224;2024-01-30T07:36:58;12.10;;;10.17;;
5491;SDS011;2768;53.540;10.224;2024-01-30T07:42:53;11.23;;;10.00;;
5491;SDS011;2768;53.540;10.224;2024-01-30T07:48:46;13.87;;;11.27;;
5491;SDS011;2768;53.540;10.224;2024-01-30T07:54:49;12.20;;;10.67;;
5491;SDS011;2768;53.540;10.224;2024-01-30T08:07:20;16.00;;;11.67;;
5491;SDS011;2768;53.540;10.224;2024-01-30T08:13:14;15.07;;;11.33;;
5491;SDS011;2768;53.540;10.224;2024-01-30T08:19:07;14.90;;;11.70;;
5491;SDS011;2768;53.540;10.224;2024-01-30T08:25:02;13.50;;;11.47;;
5491;SDS011;2768;53.540;10.224;2024-01-30T08:30:56;14.20;;;10.80;;
5491;SDS011;2768;53.540;10.224;2024-01-30T08:36:49;12.00;;;10.60;;
5491;SDS011;2768;53.540;10.224;2024-01-30T08:42:43;11.73;;;10.63;;
5491;SDS011;2768;53.540;10.224;2024-01-30T08:48:36;13.33;;;10.60;;
5491;SDS011;2768;53.540;10.224;2024-01-30T08:54:30;13.57;;;11.20;;
5491;SDS011;2768;53.540;10.224;2024-01-30T09:00:27;12.90;;;10.90;;
5491;SDS011;2768;53.540;10.224;2024-01-30T09:06:21;16.30;;;11.97;;
5491;SDS011;2768;53.540;10.224;2024-01-30T09:12:15;13.50;;;11.03;;
5491;SDS011;2768;53.540;10.224;2024-01-30T09:18:10;11.93;;;10.63;;
5491;SDS011;2768;53.540;10.224;2024-01-30T09:24:03;11.70;;;10.50;;
5491;SDS011;2768;53.540;10.224;2024-01-30T09:29:57;14.90;;;10.40;;
5491;SDS011;2768;53.540;10.224;2024-01-30T09:35:52;11.60;;;10.40;;
5491;SDS011;2768;53.540;10.224;2024-01-30T09:41:48;11.20;;;10.03;;
5491;SDS011;2768;53.540;10.224;2024-01-30T09:47:43;11.20;;;10.10;;
5491;SDS011;2768;53.540;10.224;2024-01-30T09:53:38;11.33;;;10.10;;
5491;SDS011;2768;53.540;10.224;2024-01-30T09:59:33;11.83;;;10.63;;
5491;SDS011;2768;53.540;10.224;2024-01-30T10:05:26;12.43;;;10.40;;
5491;SDS011;2768;53.540;10.224;2024-01-30T10:11:22;11.90;;;10.07;;
5491;SDS011;2768;53.540;10.224;2024-01-30T10:17:18;14.23;;;10.23;;
5491;SDS011;2768;53.540;10.224;2024-01-30T10:23:24;13.13;;;10.87;;
5491;SDS011;2768;53.540;10.224;2024-01-30T10:29:23;10.50;;;9.50;;
5491;SDS011;2768;53.540;10.224;2024-01-30T10:35:17;13.73;;;10.80;;
5491;SDS011;2768;53.540;10.224;2024-01-30T10:41:11;13.20;;;9.17;;
5491;SDS011;2768;53.540;10.224;2024-01-30T10:47:08;13.43;;;10.60;;
5491;SDS011;2768;53.540;10.224;2024-01-30T10:53:05;11.20;;;9.53;;
5491;SDS011;2768;53.540;10.224;2024-01-30T10:59:00;11.70;;;9.73;;
5491;SDS011;2768;53.540;10.224;2024-01-30T11:04:57;11.73;;;10.13;;
5491;SDS011;2768;53.540;10.224;2024-01-30T11:10:55;15.40;;;10.10;;
5491;SDS011;2768;53.540;10.224;2024-01-30T11:16:49;13.23;;;10.03;;
5491;SDS011;2768;53.540;10.224;2024-01-30T11:22:44;13.50;;;10.17;;
5491;SDS011;2768;53.540;10.224;2024-01-30T11:28:38;11.37;;;9.67;;
5491;SDS011;2768;53.540;10.224;2024-01-30T11:34:32;11.37;;;10.03;;
5491;SDS011;2768;53.540;10.224;2024-01-30T11:40:28;11.47;;;10.27;;
5491;SDS011;2768;53.540;10.224;2024-01-30T11:46:24;12.63;;;9.57;;
5491;SDS011;2768;53.540;10.224;2024-01-30T11:52:18;10.30;;;9.30;;
5491;SDS011;2768;53.540;10.224;2024-01-30T11:58:12;10.43;;;9.03;;
5491;SDS011;2768;53.540;10.224;2024-01-30T12:04:06;10.67;;;9.57;;
5491;SDS011;2768;53.540;10.224;2024-01-30T12:10:02;11.63;;;9.07;;
5491;SDS011;2768;53.540;10.224;2024-01-30T12:15:58;11.87;;;9.40;;
5491;SDS011;2768;53.540;10.224;2024-01-30T12:21:56;11.10;;;9.43;;
5491;SDS011;2768;53.540;10.224;2024-01-30T12:27:52;12.57;;;9.30;;
5491;SDS011;2768;53.540;10.224;2024-01-30T12:33:50;11.73;;;9.23;;
5491;SDS011;2768;53.540;10.224;2024-01-30T12:39:43;12.40;;;9.90;;
5491;SDS011;2768;53.540;10.224;2024-01-30T12:45:36;10.57;;;8.67;;
5491;SDS011;2768;53.540;10.224;2024-01-30T12:51:31;10.83;;;8.53;;
5491;SDS011;2768;53.540;10.224;2024-01-30T12:57:27;11.30;;;8.97;;
5491;SDS011;2768;53.540;10.224;2024-01-30T13:03:20;11.53;;;8.40;;
5491;SDS011;2768;53.540;10.224;2024-01-30T13:09:15;10.43;;;7.90;;
5491;SDS011;2768;53.540;10.224;2024-01-30T13:15:08;10.07;;;7.93;;
5491;SDS011;2768;53.540;10.224;2024-01-30T13:21:03;11.03;;;8.40;;
5491;SDS011;2768;53.540;10.224;2024-01-30T13:26:57;10.30;;;8.17;;
5491;SDS011;2768;53.540;10.224;2024-01-30T13:32:51;11.20;;;8.00;;
5491;SDS011;2768;53.540;10.224;2024-01-30T13:38:44;10.10;;;8.20;;
5491;SDS011;2768;53.540;10.224;2024-01-30T13:44:38;10.00;;;7.60;;
5491;SDS011;2768;53.540;10.224;2024-01-30T13:50:32;9.37;;;8.27;;
5491;SDS011;2768;53.540;10.224;2024-01-30T13:56:25;12.70;;;8.20;;
5491;SDS011;2768;53.540;10.224;2024-01-30T14:02:20;10.10;;;7.70;;
5491;SDS011;2768;53.540;10.224;2024-01-30T14:08:14;13.60;;;9.17;;
5491;SDS011;2768;53.540;10.224;2024-01-30T14:14:08;11.00;;;8.40;;
5491;SDS011;2768;53.540;10.224;2024-01-30T14:20:03;12.23;;;7.80;;
5491;SDS011;2768;53.540;10.224;2024-01-30T14:25:57;9.60;;;7.20;;
5491;SDS011;2768;53.540;10.224;2024-01-30T14:31:50;9.63;;;8.10;;
5491;SDS011;2768;53.540;10.224;2024-01-30T14:37:45;11.43;;;7.67;;
5491;SDS011;2768;53.540;10.224;2024-01-30T14:43:38;15.60;;;8.27;;
5491;SDS011;2768;53.540;10.224;2024-01-30T14:49:31;11.17;;;8.40;;
5491;SDS011;2768;53.540;10.224;2024-01-30T14:55:26;11.23;;;8.17;;
5491;SDS011;2768;53.540;10.224;2024-01-30T15:01:19;12.93;;;8.20;;
5491;SDS011;2768;53.540;10.224;2024-01-30T15:07:12;11.60;;;9.10;;
5491;SDS011;2768;53.540;10.224;2024-01-30T15:13:20;12.50;;;8.87;;
5491;SDS011;2768;53.540;10.224;2024-01-30T15:19:13;10.77;;;8.13;;
5491;SDS011;2768;53.540;10.224;2024-01-30T15:25:08;10.87;;;8.23;;
5491;SDS011;2768;53.540;10.224;2024-01-30T15:31:03;12.30;;;8.97;;
5491;SDS011;2768;53.540;10.224;2024-01-30T15:36:57;9.53;;;8.57;;
5491;SDS011;2768;53.540;10.224;2024-01-30T15:42:50;9.97;;;8.83;;
5491;SDS011;2768;53.540;10.224;2024-01-30T15:48:45;10.60;;;7.83;;
5491;SDS011;2768;53.540;10.224;2024-01-30T15:54:39;9.33;;;7.63;;
5491;SDS011;2768;53.540;10.224;2024-01-30T16:00:32;9.23;;;7.63;;
5491;SDS011;2768;53.540;10.224;2024-01-30T16:06:27;15.07;;;7.77;;
5491;SDS011;2768;53.540;10.224;2024-01-30T16:12:20;16.93;;;10.00;;
5491;SDS011;2768;53.540;10.224;2024-01-30T16:18:13;11.37;;;8.83;;
5491;SDS011;2768;53.540;10.224;2024-01-30T16:24:08;13.00;;;9.53;;
5491;SDS011;2768;53.540;10.224;2024-01-30T16:30:02;13.20;;;9.57;;
5491;SDS011;2768;53.540;10.224;2024-01-30T16:35:56;15.10;;;8.97;;
5491;SDS011;2768;53.540;10.224;2024-01-30T16:41:50;11.33;;;9.40;;
5491;SDS011;2768;53.540;10.224;2024-01-30T16:47:44;13.30;;;10.90;;
5491;SDS011;2768;53.540;10.224;2024-01-30T16:53:37;9.77;;;8.67;;
5491;SDS011;2768;53.540;10.224;2024-01-30T16:59:32;12.37;;;9.50;;
5491;SDS011;2768;53.540;10.224;2024-01-30T17:05:25;10.83;;;9.43;;
5491;SDS011;2768;53.540;10.224;2024-01-30T17:11:18;12.23;;;9.47;;
5491;SDS011;2768;53.540;10.224;2024-01-30T17:17:13;12.03;;;10.03;;
5491;SDS011;2768;53.540;10.224;2024-01-30T17:23:08;11.70;;;9.20;;
5491;SDS011;2768;53.540;10.224;2024-01-30T17:29:01;11.50;;;9.30;;
5491;SDS011;2768;53.540;10.224;2024-01-30T17:34:57;13.40;;;9.40;;
5491;SDS011;2768;53.540;10.224;2024-01-30T17:40:50;13.03;;;9.67;;
5491;SDS011;2768;53.540;10.224;2024-01-30T17:46:59;11.03;;;9.27;;
5491;SDS011;2768;53.540;10.224;2024-01-30T17:52:54;14.73;;;9.27;;
5491;SDS011;2768;53.540;10.224;2024-01-30T17:58:48;12.33;;;9.83;;
5491;SDS011;2768;53.540;10.224;2024-01-30T18:04:42;10.70;;;9.30;;
5491;SDS011;2768;53.540;10.224;2024-01-30T18:10:37;11.57;;;9.90;;
5491;SDS011;2768;53.540;10.224;2024-01-30T18:16:30;10.83;;;8.60;;
5491;SDS011;2768;53.540;10.224;2024-01-30T18:22:25;12.33;;;9.13;;
5491;SDS011;2768;53.540;10.224;2024-01-30T18:28:19;12.93;;;9.27;;
5491;SDS011;2768;53.540;10.224;2024-01-30T18:34:13;11.37;;;8.97;;
5491;SDS011;2768;53.540;10.224;2024-01-30T18:40:06;12.23;;;8.87;;
5491;SDS011;2768;53.540;10.224;2024-01-30T18:46:02;8.23;;;7.33;;
5491;SDS011;2768;53.540;10.224;2024-01-30T18:51:55;9.93;;;7.77;;
5491;SDS011;2768;53.540;10.224;2024-01-30T18:57:50;9.13;;;7.60;;
5491;SDS011;2768;53.540;10.224;2024-01-30T19:03:46;9.90;;;7.77;;
5491;SDS011;2768;53.540;10.224;2024-01-30T19:09:39;7.70;;;6.73;;
5491;SDS011;2768;53.540;10.224;2024-01-30T19:15:33;8.13;;;5.70;;
5491;SDS011;2768;53.540;10.224;2024-01-30T19:21:27;7.20;;;5.30;;
5491;SDS011;2768;53.540;10.224;2024-01-30T19:27:21;10.70;;;5.50;;
5491;SDS011;2768;53.540;10.224;2024-01-30T19:33:15;3.43;;;3.23;;
5491;SDS011;2768;53.540;10.224;2024-01-30T19:39:09;2.47;;;2.30;;
5491;SDS011;2768;53.540;10.224;2024-01-30T19:45:05;3.20;;;2.90;;
5491;SDS011;2768;53.540;10.224;2024-01-30T19:51:01;2.93;;;2.40;;
5491;SDS011;2768;53.540;10.224;2024-01-30T19:56:56;2.70;;;2.50;;
5491;SDS011;2768;53.540;10.224;2024-01-30T20:02:49;5.07;;;3.40;;
5491;SDS011;2768;53.540;10.224;2024-01-30T20:08:43;3.33;;;3.03;;
5491;SDS011;2768;53.540;10.224;2024-01-30T20:14:38;4.10;;;3.70;;
5491;SDS011;2768;53.540;10.224;2024-01-30T20:20:32;3.07;;;2.87;;
5491;SDS011;2768;53.540;10.224;2024-01-30T20:26:27;5.37;;;4.00;;
5491;SDS011;2768;53.540;10.224;2024-01-30T20:32:22;4.60;;;4.20;;
5491;SDS011;2768;53.540;10.224;2024-01-30T20:38:16;4.63;;;4.23;;
5491;SDS011;2768;53.540;10.224;2024-01-30T20:44:09;5.10;;;4.50;;
5491;SDS011;2768;53.540;10.224;2024-01-30T20:50:07;4.93;;;4.43;;
5491;SDS011;2768;53.540;10.224;2024-01-30T20:56:01;4.40;;;4.10;;
5491;SDS011;2768;53.540;10.224;2024-01-30T21:01:56;4.40;;;4.00;;
5491;SDS011;2768;53.540;10.224;2024-01-30T21:07:52;4.30;;;4.00;;
5491;SDS011;2768;53.540;10.224;2024-01-30T21:13:46;4.50;;;4.10;;
5491;SDS011;2768;53.540;10.224;2024-01-30T21:19:40;4.20;;;3.90;;
5491;SDS011;2768;53.540;10.224;2024-01-30T21:25:36;3.90;;;3.60;;
5491;SDS011;2768;53.540;10.224;2024-01-30T21:31:29;4.33;;;3.70;;
5491;SDS011;2768;53.540;10.224;2024-01-30T21:37:23;4.00;;;3.70;;
5491;SDS011;2768;53.540;10.224;2024-01-30T21:43:19;4.13;;;3.73;;
5491;SDS011;2768;53.540;10.224;2024-01-30T21:49:12;4.90;;;4.40;;
5491;SDS011;2768;53.540;10.224;2024-01-30T21:55:08;4.33;;;4.00;;
5491;SDS011;2768;53.540;10.224;2024-01-30T22:01:03;4.30;;;3.83;;
5491;SDS011;2768;53.540;10.224;2024-01-30T22:06:57;4.53;;;4.20;;
5491;SDS011;2768;53.540;10.224;2024-01-30T22:12:51;4.90;;;4.40;;
5491;SDS011;2768;53.540;10.224;2024-01-30T22:18:46;4.30;;;4.00;;
5491;SDS011;2768;53.540;10.224;2024-01-30T22:24:40;3.37;;;3.17;;
5491;SDS011;2768;53.540;10.224;2024-01-30T22:30:33;3.50;;;3.20;;
5491;SDS011;2768;53.540;10.224;2024-01-30T22:36:33;3.43;;;3.13;;
5491;SDS011;2768;53.540;10.224;2024-01-30T22:42:26;4.03;;;3.07;;
5491;SDS011;2768;53.540;10.224;2024-01-30T22:48:20;3.80;;;2.90;;
5491;SDS011;2768;53.540;10.224;2024-01-30T22:54:16;3.83;;;2.80;;
5491;SDS011;2768;53.540;10.224;2024-01-30T23:00:10;3.07;;;2.30;;
5491;SDS011;2768;53.540;10.224;2024-01-30T23:06:08;1.60;;;1.50;;
5491;SDS011;2768;53.540;10.224;2024-01-30T23:12:03;1.90;;;1.70;;
5491;SDS011;2768;53.540;10.224;2024-01-30T23:17:57;2.43;;;1.60;;
5491;SDS011;2768;53.540;10.224;2024-01-30T23:23:52;1.87;;;1.40;;
5491;SDS011;2768;53.540;10.224;2024-01-30T23:29:46;3.63;;;1.43;;
5491;SDS011;2768;53.540;10.224;2024-01-30T23:35:40;3.93;;;1.30;;
5491;SDS011;2768;53.540;10.224;2024-01-30T23:41:33;4.03;;;1.87;;
5491;SDS011;2768;53.540;10.224;2024-01-30T23:47:28;2.90;;;1.20;;
5491;SDS011;2768;53.540;10.224;2024-01-30T23:53:21;2.50;;;1.07;;
5491;SDS011;2768;53.540;10.224;2024-01-30T23:59:15;2.07;;;1.07;;
